• Join FlightAware (Why Join?)
  • Login
  • US Flag 
12:27AM EDT


 

Airport Tracker/Info


-or-


 

Live Flight TrackerFlight Track Log ✈ N812TT ✈ 13-May-2013 ✈ KJVL - KOLU

Flight Track Log - Related Links

Times and Time Zones

All times are in EDT time to prevent confusion due to time zone crossing. See the N812TT flight status page for this flight to view local times or setup timezone preferences in your user account.

Time Position Orientation Groundspeed Altitude Reporting Facility
EDT Latitude Longitude Course Direction KTS MPH feet Rate Location/Type
05:30PM 42.6306 -89.0883 264° West 152 175 2,400  Level Chicago Center
05:31PM 42.6253 -89.1619 264° West 164 189 5,000 2,340 Climbing Chicago Center
05:32PM 42.6192 -89.2233 262° West 165 190 7,300 2,160 Climbing Chicago Center
05:33PM 42.6122 -89.2808 261° West 156 180 9,500 2,160 Climbing Chicago Center
05:34PM 42.6064 -89.3358 262° West 148 170 11,800 1,980 Climbing Chicago Center
05:35PM 42.6067 -89.3928 270° West 150 173 13,600 960 Climbing Chicago Center
05:36PM 42.6047 -89.4686 268° West 192 221 13,900 1,200 Climbing Chicago Center
05:37PM 42.6100 -89.5608 274° West 209 241 16,200 1,920 Climbing Chicago Center
05:38PM 42.6219 -89.6242 284° West 181 208 17,900 960 Climbing Chicago Center
05:40PM 42.6364 -89.6975 285° West 194 223 18,200 1,200 Climbing Chicago Center
05:41PM 42.6500 -89.7725 284° West 204 235 20,400 1,920 Climbing Chicago Center
05:42PM 42.6622 -89.8283 287° West 167 192 22,200 1,680 Climbing Chicago Center
05:43PM 42.6694 -89.8828 280° West 151 174 23,900 1,320 Climbing Chicago Center
05:44PM 42.6681 -89.9397 268° West 153 176 25,000 960 Climbing Chicago Center
05:45PM 42.6586 -90.0142 260° West 166 191 26,000 480 Climbing Chicago Center
05:46PM 42.6472 -90.0931 259° West 207 238 26,000  Level Chicago Center
05:47PM 42.6372 -90.1789 261° West 228 262 26,000  Level Chicago Center
05:48PM 42.6253 -90.2689 260° West 241 277 26,000  Level Chicago Center
05:49PM 42.6144 -90.3597 261° West 245 282 26,000  Level Chicago Center
05:50PM 42.5983 -90.4675 259° West 245 282 26,000  Level Chicago Center
05:51PM 42.5856 -90.5600 259° West 246 283 26,000  Level Chicago Center
05:52PM 42.5744 -90.6500 261° West 249 287 26,000  Level Chicago Center
05:53PM 42.5614 -90.7411 259° West 248 285 26,000  Level Chicago Center
05:54PM 42.5500 -90.8333 261° West 249 287 26,000  Level Chicago Center
05:55PM 42.5336 -90.9442 259° West 252 290 26,000  Level Chicago Center
05:56PM 42.5214 -91.0372 260° West 253 291 26,000  Level Chicago Center
05:57PM 42.5072 -91.1308 258° West 255 293 26,000  Level Chicago Center
05:58PM 42.4942 -91.2244 259° West 254 292 26,000  Level Chicago Center
05:59PM 42.4822 -91.3200 260° West 258 297 26,000  Level Chicago Center
06:00PM 42.4644 -91.4336 258° West 259 298 26,000  Level Chicago Center
06:01PM 42.4506 -91.5294 259° West 259 298 26,000  Level Chicago Center
06:02PM 42.4375 -91.6239 259° West 257 296 26,000  Level Chicago Center
06:03PM 42.4219 -91.7197 258° West 261 300 26,000  Level Chicago Center
06:04PM 42.4094 -91.8153 260° West 259 298 26,000  Level Chicago Center
06:05PM 42.3936 -91.9122 258° West 264 304 26,000  Level Chicago Center
06:06PM 42.3783 -92.0242 260° West 256 295 26,000  Level Chicago Center
06:07PM 42.3631 -92.1203 258° West 261 300 26,000  Level Chicago Center
06:08PM 42.3578 -92.1581 259° West 259 298 26,000  Level Minneapolis Center
06:09PM 42.3442 -92.2533 259° West 259 298 26,000  Level Minneapolis Center
06:10PM 42.3261 -92.3667 258° West 259 298 26,000  Level Minneapolis Center
06:11PM 42.3125 -92.4594 259° West 257 296 26,000  Level Minneapolis Center
06:12PM 42.2967 -92.5536 257° West 257 296 26,000  Level Minneapolis Center
06:13PM 42.2833 -92.6475 259° West 257 296 26,000  Level Minneapolis Center
06:14PM 42.2681 -92.7414 258° West 259 298 26,000  Level Minneapolis Center
06:15PM 42.2503 -92.8517 258° West 254 292 26,000  Level Minneapolis Center
06:16PM 42.2356 -92.9475 258° West 261 300 26,000  Level Minneapolis Center
06:17PM 42.2211 -93.0417 258° West 260 299 26,000  Level Minneapolis Center
06:18PM 42.2047 -93.1364 257° West 263 303 26,000  Level Minneapolis Center
06:19PM 42.1908 -93.2286 259° West 256 295 26,000  Level Minneapolis Center
06:20PM 42.1758 -93.3219 258° West 259 298 26,000  Level Minneapolis Center
06:21PM 42.1578 -93.4333 258° West 258 297 26,000  Level Minneapolis Center
06:22PM 42.1419 -93.5267 257° West 259 298 26,000  Level Minneapolis Center
06:23PM 42.1286 -93.6197 259° West 258 297 26,000  Level Minneapolis Center
06:24PM 42.1108 -93.7136 256° West 261 300 26,000  Level Minneapolis Center
06:25PM 42.0975 -93.8075 259° West 260 299 26,000  Level Minneapolis Center
06:26PM 42.0792 -93.9122 257° West 257 296 26,000  Level Minneapolis Center
06:28PM 42.0642 -94.0064 258° West 257 296 26,000  Level Minneapolis Center
06:29PM 42.0469 -94.1000 256° West 258 297 26,000  Level Minneapolis Center
06:30PM 42.0319 -94.1936 258° West 256 295 26,000  Level Minneapolis Center
06:31PM 42.0161 -94.2886 257° West 258 297 26,000  Level Minneapolis Center
06:32PM 41.9964 -94.4006 257° West 256 295 26,000  Level Minneapolis Center
06:33PM 41.9803 -94.4958 257° West 258 297 26,000  Level Minneapolis Center
06:34PM 41.9644 -94.5903 257° West 259 298 26,000  Level Minneapolis Center
06:35PM 41.9472 -94.6842 256° West 258 297 26,000  Level Minneapolis Center
06:36PM 41.9311 -94.7800 257° West 262 302 26,000  Level Minneapolis Center
06:37PM 41.9139 -94.8756 256° West 263 303 26,000  Level Minneapolis Center
06:38PM 41.8972 -94.9714 257° West 263 303 26,000  Level Minneapolis Center
06:39PM 41.8761 -95.0861 256° West 264 304 26,000  Level Minneapolis Center
06:40PM 41.8592 -95.1828 257° West 266 306 26,000  Level Minneapolis Center
06:41PM 41.8414 -95.2792 256° West 266 306 26,000  Level Minneapolis Center
06:42PM 41.8253 -95.3739 257° West 263 303 26,000  Level Minneapolis Center
06:43PM 41.8078 -95.4689 256° West 263 303 26,000  Level Minneapolis Center
06:44PM 41.7903 -95.5650 256° West 265 305 26,000 -120 Level Minneapolis Center
06:45PM 41.7689 -95.6800 256° West 267 307 25,800 -540 Descending Minneapolis Center
06:46PM 41.7514 -95.7800 257° West 276 318 25,000 -660 Descending Minneapolis Center
06:47PM 41.7308 -95.8850 255° West 290 334 24,500 -660 Descending Minneapolis Center
06:48PM 41.7119 -95.9892 256° West 290 334 23,700 -900 Descending Minneapolis Center
06:49PM 41.6917 -96.0969 256° West 299 344 22,700 -960 Descending Minneapolis Center
06:50PM 41.6706 -96.2061 256° West 303 349 21,800 -1,140 Descending Minneapolis Center
06:51PM 41.6456 -96.3356 256° West 303 349 20,400 -1,380 Descending Minneapolis Center
06:52PM 41.6256 -96.4428 256° West 301 346 19,000 -1,740 Descending Minneapolis Center
06:53PM 41.6053 -96.5519 256° West 304 350 16,900 -1,860 Descending Minneapolis Center
06:54PM 41.5842 -96.6575 255° West 298 343 15,200 -1,800 Descending Minneapolis Center
06:55PM 41.5653 -96.7594 256° West 289 333 13,200 -2,460 Descending Minneapolis Center
06:56PM 41.5411 -96.8822 255° West 287 330 10,200 -2,940 Descending Minneapolis Center